PWSweather.com
Personal Weather Stations
Station Observations
AF1HS
North Haven, CT 06473

North Haven, CT 06473

Lat: 41.3733, Lon: -72.8413

Elevation: 85.3

Station Type: Oregon Scientific WMR968

http://www.af1hs.com/wx/index.php

Latest ConditionsUpdated 10:20:48 AM EDT Wednesday, Apr 25, 2018
Currently Today's Max Today's Min Today's Average
Temperature 53.1°F11.7°C 53.1°F11.7°C 50.5°F10.3°C 51.5°F10.8°C
Dew Point 53.1°F11.7°C 53.1°F11.7°C 37.0°F2.8°C 48.0°F8.9°C
Winds 2.2 mph E3.5 kmh E 7.3 mph ESE11.7 kmh ESE - 4.0 mph 6.4 kmh
Wind Gusts 4.9 mph7.9 kmh 12.7 mph20.4 kmh - -
Humidity 100% 100% 57% 89%
Pressure 29.88 in1011.9 mb 30.12 in1020.0 mb 29.88 in1011.9 mb -
Precipitation - 0.08 in2.0 mm - -
Hour Temp Dew Point Humidity Winds Wind Gusts Pressure Precip Precip Rate Daily Precip Total
10:20 AM 53.1°F11.7°C 53.1°F11.7°C 100% 2.2 mph E3.5 kmh E 4.9 mph7.9 kmh 29.88 in1011.9 mb - 0.00 in0.0 mm 0.08 in2.0 mm
10:10 AM 52.9°F11.6°C 52.9°F11.6°C 100% 2.8 mph E4.5 kmh E 8.7 mph14.0 kmh 29.88 in1011.9 mb - 0.00 in0.0 mm 0.08 in2.0 mm
10:00 AM 53.1°F11.7°C 53.1°F11.7°C 100% 4.1 mph ESE6.6 kmh ESE 5.8 mph9.3 kmh 29.88 in1011.9 mb - 0.00 in0.0 mm 0.08 in2.0 mm
09:50 AM 53.0°F11.7°C 53.0°F11.7°C 100% 3.3 mph E5.3 kmh E 5.8 mph9.3 kmh 29.88 in1011.9 mb - 0.00 in0.0 mm 0.08 in2.0 mm
09:41 AM 52.6°F11.4°C 52.6°F11.4°C 100% 2.1 mph E3.4 kmh E 5.8 mph9.3 kmh 29.88 in1011.9 mb - 0.00 in0.0 mm 0.08 in2.0 mm
09:30 AM 51.8°F11.0°C 51.8°F11.0°C 100% 4.3 mph E6.9 kmh E 4.9 mph7.9 kmh 29.88 in1011.9 mb - 0.00 in0.0 mm 0.08 in2.0 mm
09:20 AM 51.5°F10.8°C 51.5°F10.8°C 100% 5.2 mph E8.4 kmh E 8.3 mph13.4 kmh 29.90 in1012.5 mb - 0.00 in0.0 mm 0.08 in2.0 mm
09:10 AM 51.4°F10.8°C 51.4°F10.8°C 100% 5.9 mph ESE9.5 kmh ESE 10.1 mph16.3 kmh 29.91 in1012.9 mb - 0.04 in1.0 mm 0.08 in2.0 mm
09:01 AM 51.4°F10.8°C 51.4°F10.8°C 100% 5.4 mph ESE8.7 kmh ESE 8.3 mph13.4 kmh 29.91 in1012.9 mb - 0.04 in1.0 mm 0.08 in2.0 mm
08:50 AM 51.3°F10.7°C 51.3°F10.7°C 100% 3.5 mph E5.6 kmh E 5.4 mph8.7 kmh 29.91 in1012.9 mb - 0.00 in0.0 mm 0.04 in1.0 mm
08:40 AM 51.3°F10.7°C 51.3°F10.7°C 100% 3.1 mph E5.0 kmh E 6.3 mph10.1 kmh 29.91 in1012.9 mb - 0.00 in0.0 mm 0.04 in1.0 mm
08:30 AM 51.3°F10.7°C 51.3°F10.7°C 100% 1.4 mph E2.3 kmh E 5.8 mph9.3 kmh 29.91 in1012.9 mb - 0.00 in0.0 mm 0.04 in1.0 mm
08:20 AM 51.3°F10.7°C 51.3°F10.7°C 100% 3.9 mph ESE6.3 kmh ESE 8.7 mph14.0 kmh 29.91 in1012.9 mb - 0.00 in0.0 mm 0.04 in1.0 mm
08:10 AM 51.3°F10.7°C 51.3°F10.7°C 100% 4.3 mph E6.9 kmh E 8.0 mph12.9 kmh 29.91 in1012.9 mb - 0.04 in1.0 mm 0.04 in1.0 mm
08:00 AM 51.3°F10.7°C 51.3°F10.7°C 100% 3.9 mph E6.3 kmh E 5.8 mph9.3 kmh 29.94 in1013.9 mb - 0.00 in0.0 mm 0.00 in0.0 mm
07:50 AM 51.3°F10.7°C 51.3°F10.7°C 100% 0.1 mph E0.2 kmh E -- 29.94 in1013.9 mb - 0.00 in0.0 mm 0.00 in0.0 mm
07:40 AM 51.1°F10.6°C 51.1°F10.6°C 100% 4.0 mph ESE6.4 kmh ESE 6.3 mph10.1 kmh 29.94 in1013.9 mb - 0.00 in0.0 mm 0.00 in0.0 mm
07:30 AM 51.1°F10.6°C 51.1°F10.6°C 100% 4.3 mph E6.9 kmh E 8.0 mph12.9 kmh 29.94 in1013.9 mb - 0.00 in0.0 mm 0.00 in0.0 mm
07:20 AM 50.9°F10.5°C 50.9°F10.5°C 100% 3.5 mph E5.6 kmh E 7.6 mph12.2 kmh 29.94 in1013.9 mb - 0.00 in0.0 mm 0.00 in0.0 mm
07:10 AM 51.0°F10.6°C 51.0°F10.6°C 100% 4.4 mph E7.1 kmh E 7.6 mph12.2 kmh 29.94 in1013.9 mb - 0.00 in0.0 mm 0.00 in0.0 mm
07:00 AM 51.1°F10.6°C 51.1°F10.6°C 100% 1.8 mph E2.9 kmh E 4.0 mph6.4 kmh 29.94 in1013.9 mb - 0.00 in0.0 mm 0.00 in0.0 mm
06:50 AM 51.2°F10.7°C 51.2°F10.7°C 100% 4.9 mph E7.9 kmh E 5.8 mph9.3 kmh 29.95 in1014.2 mb - 0.00 in0.0 mm 0.00 in0.0 mm
06:40 AM 51.3°F10.7°C 51.3°F10.7°C 100% 4.3 mph E6.9 kmh E 6.3 mph10.1 kmh 29.97 in1014.9 mb - 0.00 in0.0 mm 0.00 in0.0 mm
06:31 AM 51.3°F10.7°C 51.3°F10.7°C 100% 3.9 mph E6.3 kmh E 5.8 mph9.3 kmh 29.97 in1014.9 mb - 0.00 in0.0 mm 0.00 in0.0 mm
06:20 AM 51.3°F10.7°C 51.3°F10.7°C 100% 3.8 mph E6.1 kmh E 5.8 mph9.3 kmh 29.97 in1014.9 mb - 0.00 in0.0 mm 0.00 in0.0 mm
06:10 AM 51.2°F10.7°C 51.2°F10.7°C 100% 3.7 mph E6.0 kmh E 5.8 mph9.3 kmh 29.97 in1014.9 mb - 0.00 in0.0 mm 0.00 in0.0 mm
06:00 AM 51.2°F10.7°C 51.2°F10.7°C 100% 3.8 mph E6.1 kmh E 5.4 mph8.7 kmh 29.97 in1014.9 mb - 0.00 in0.0 mm 0.00 in0.0 mm
05:50 AM 51.0°F10.6°C 51.0°F10.6°C 100% 5.7 mph E9.2 kmh E 12.7 mph20.4 kmh 29.97 in1014.9 mb - 0.00 in0.0 mm 0.00 in0.0 mm
05:41 AM 50.7°F10.4°C 50.7°F10.4°C 100% 4.8 mph ESE7.7 kmh ESE 8.0 mph12.9 kmh 29.97 in1014.9 mb - 0.00 in0.0 mm 0.00 in0.0 mm
05:30 AM 50.6°F10.3°C 50.6°F10.3°C 100% 5.7 mph E9.2 kmh E 8.7 mph14.0 kmh 29.97 in1014.9 mb - 0.00 in0.0 mm 0.00 in0.0 mm
05:20 AM 50.5°F10.3°C 50.5°F10.3°C 100% 4.1 mph ESE6.6 kmh ESE 6.3 mph10.1 kmh 29.97 in1014.9 mb - 0.00 in0.0 mm 0.00 in0.0 mm
05:10 AM 50.5°F10.3°C 50.5°F10.3°C 100% 2.9 mph E4.7 kmh E 4.0 mph6.4 kmh 29.97 in1014.9 mb - 0.00 in0.0 mm 0.00 in0.0 mm
05:00 AM 50.5°F10.3°C 50.5°F10.3°C 100% 4.6 mph E7.4 kmh E 8.0 mph12.9 kmh 30.00 in1015.9 mb - 0.00 in0.0 mm 0.00 in0.0 mm
04:50 AM 50.7°F10.4°C 50.7°F10.4°C 100% 3.8 mph E6.1 kmh E 8.0 mph12.9 kmh 30.00 in1015.9 mb - 0.00 in0.0 mm 0.00 in0.0 mm
04:40 AM 50.7°F10.4°C 50.7°F10.4°C 100% 3.4 mph E5.5 kmh E 6.3 mph10.1 kmh 30.00 in1015.9 mb - 0.00 in0.0 mm 0.00 in0.0 mm
04:30 AM 50.9°F10.5°C 50.9°F10.5°C 100% 4.2 mph E6.8 kmh E 7.2 mph11.6 kmh 30.00 in1015.9 mb - 0.00 in0.0 mm 0.00 in0.0 mm
04:21 AM 50.9°F10.5°C 50.9°F10.5°C 100% 4.8 mph E7.7 kmh E 7.6 mph12.2 kmh 30.00 in1015.9 mb - 0.00 in0.0 mm 0.00 in0.0 mm
04:10 AM 51.1°F10.6°C 50.0°F10.0°C 96% 3.8 mph E6.1 kmh E 5.4 mph8.7 kmh 30.00 in1015.9 mb - 0.00 in0.0 mm 0.00 in0.0 mm
04:00 AM 51.1°F10.6°C 50.3°F10.2°C 97% 6.2 mph SE10.0 kmh SE 8.7 mph14.0 kmh 30.00 in1015.9 mb - 0.00 in0.0 mm 0.00 in0.0 mm
03:50 AM 51.3°F10.7°C 49.3°F9.6°C 93% 4.7 mph ESE7.6 kmh ESE 10.1 mph16.3 kmh 30.00 in1015.9 mb - 0.00 in0.0 mm 0.00 in0.0 mm
03:40 AM 51.3°F10.7°C 49.0°F9.4°C 92% 7.3 mph ESE11.7 kmh ESE 12.3 mph19.8 kmh 30.00 in1015.9 mb - 0.00 in0.0 mm 0.00 in0.0 mm
03:30 AM 51.3°F10.7°C 46.3°F7.9°C 83% 4.7 mph ESE7.6 kmh ESE 8.0 mph12.9 kmh 30.00 in1015.9 mb - 0.00 in0.0 mm 0.00 in0.0 mm
03:20 AM 51.4°F10.8°C 45.1°F7.3°C 79% 5.2 mph E8.4 kmh E 5.4 mph8.7 kmh 30.01 in1016.3 mb - 0.00 in0.0 mm 0.00 in0.0 mm
03:11 AM 51.6°F10.9°C 45.3°F7.4°C 79% 5.5 mph SE8.9 kmh SE 8.7 mph14.0 kmh 30.03 in1016.9 mb - 0.00 in0.0 mm 0.00 in0.0 mm
03:00 AM 51.4°F10.8°C 44.8°F7.1°C 78% 5.4 mph E8.7 kmh E 8.3 mph13.4 kmh 30.03 in1016.9 mb - 0.00 in0.0 mm 0.00 in0.0 mm
02:51 AM 51.4°F10.8°C 44.1°F6.7°C 76% 3.6 mph E5.8 kmh E 5.8 mph9.3 kmh 30.03 in1016.9 mb - 0.00 in0.0 mm 0.00 in0.0 mm
02:40 AM 51.4°F10.8°C 44.1°F6.7°C 76% 5.2 mph E8.4 kmh E 8.3 mph13.4 kmh 30.03 in1016.9 mb - 0.00 in0.0 mm 0.00 in0.0 mm
02:30 AM 51.4°F10.8°C 43.4°F6.3°C 74% 5.1 mph ENE8.2 kmh ENE 10.5 mph16.9 kmh 30.03 in1016.9 mb - 0.00 in0.0 mm 0.00 in0.0 mm
02:20 AM 51.6°F10.9°C 43.5°F6.4°C 74% 5.4 mph E8.7 kmh E 8.7 mph14.0 kmh 30.05 in1017.6 mb - 0.00 in0.0 mm 0.00 in0.0 mm
02:10 AM 51.7°F10.9°C 43.4°F6.3°C 73% 4.9 mph E7.9 kmh E 8.3 mph13.4 kmh 30.06 in1017.9 mb - 0.00 in0.0 mm 0.00 in0.0 mm
02:00 AM 51.5°F10.8°C 42.7°F5.9°C 72% 4.5 mph ESE7.2 kmh ESE 10.1 mph16.3 kmh 30.06 in1017.9 mb - 0.00 in0.0 mm 0.00 in0.0 mm
01:50 AM 51.5°F10.8°C 42.4°F5.8°C 71% 3.4 mph ESE5.5 kmh ESE 5.4 mph8.7 kmh 30.08 in1018.6 mb - 0.00 in0.0 mm 0.00 in0.0 mm
01:40 AM 51.7°F10.9°C 42.3°F5.7°C 70% 3.7 mph E6.0 kmh E 5.8 mph9.3 kmh 30.09 in1019.0 mb - 0.00 in0.0 mm 0.00 in0.0 mm
01:31 AM 51.9°F11.1°C 42.1°F5.6°C 69% 4.4 mph E7.1 kmh E 5.8 mph9.3 kmh 30.09 in1019.0 mb - 0.00 in0.0 mm 0.00 in0.0 mm
01:20 AM 52.0°F11.1°C 42.1°F5.6°C 69% 4.3 mph E6.9 kmh E 6.7 mph10.8 kmh 30.09 in1019.0 mb - 0.00 in0.0 mm 0.00 in0.0 mm
01:10 AM 52.0°F11.1°C 41.8°F5.4°C 68% 4.0 mph E6.4 kmh E 5.8 mph9.3 kmh 30.09 in1019.0 mb - 0.00 in0.0 mm 0.00 in0.0 mm
01:00 AM 52.0°F11.1°C 40.6°F4.8°C 65% 3.0 mph ESE4.8 kmh ESE 4.0 mph6.4 kmh 30.09 in1019.0 mb - 0.00 in0.0 mm 0.00 in0.0 mm
12:50 AM 52.2°F11.2°C 40.3°F4.6°C 64% 3.4 mph E5.5 kmh E 5.8 mph9.3 kmh 30.09 in1019.0 mb - 0.00 in0.0 mm 0.00 in0.0 mm
12:40 AM 52.2°F11.2°C 39.5°F4.2°C 62% 4.1 mph ESE6.6 kmh ESE 6.3 mph10.1 kmh 30.12 in1020.0 mb - 0.00 in0.0 mm 0.00 in0.0 mm
12:30 AM 52.2°F11.2°C 39.1°F3.9°C 61% 1.4 mph E2.3 kmh E 5.8 mph9.3 kmh 30.12 in1020.0 mb - 0.00 in0.0 mm 0.00 in0.0 mm
12:20 AM 52.0°F11.1°C 38.5°F3.6°C 60% 1.2 mph ENE1.9 kmh ENE 3.1 mph5.0 kmh 30.12 in1020.0 mb - 0.00 in0.0 mm 0.00 in0.0 mm
12:10 AM 51.8°F11.0°C 37.5°F3.1°C 58% 0.6 mph E1.0 kmh E 5.8 mph9.3 kmh 30.12 in1020.0 mb - 0.00 in0.0 mm 0.00 in0.0 mm
12:00 AM 51.8°F11.0°C 37.0°F2.8°C 57% 2.1 mph ESE3.4 kmh ESE 4.9 mph7.9 kmh 30.12 in1020.0 mb - 0.00 in0.0 mm 0.00 in0.0 mm